sensor_id;sensor_type;location;lat;lon;timestamp;P1;durP1;ratioP1;P2;durP2;ratioP2
49784;SDS011;35679;38.732;-121.358;2023-08-01T00:02:16;5.28;;;4.75;;
49784;SDS011;35679;38.732;-121.358;2023-08-01T00:05:06;4.68;;;4.28;;
49784;SDS011;35679;38.732;-121.358;2023-08-01T00:07:56;5.38;;;4.60;;
49784;SDS011;35679;38.732;-121.358;2023-08-01T00:10:45;5.03;;;4.50;;
49784;SDS011;35679;38.732;-121.358;2023-08-01T00:13:35;5.00;;;4.53;;
49784;SDS011;35679;38.732;-121.358;2023-08-01T00:16:24;5.07;;;4.57;;
49784;SDS011;35679;38.732;-121.358;2023-08-01T00:19:14;4.60;;;4.20;;
49784;SDS011;35679;38.732;-121.358;2023-08-01T00:22:03;4.38;;;4.05;;
49784;SDS011;35679;38.732;-121.358;2023-08-01T00:24:53;4.25;;;3.95;;
49784;SDS011;35679;38.732;-121.358;2023-08-01T00:27:43;4.43;;;4.03;;
49784;SDS011;35679;38.732;-121.358;2023-08-01T00:30:32;4.63;;;4.20;;
49784;SDS011;35679;38.732;-121.358;2023-08-01T00:33:22;4.60;;;3.53;;
49784;SDS011;35679;38.732;-121.358;2023-08-01T00:36:11;3.80;;;3.45;;
49784;SDS011;35679;38.732;-121.358;2023-08-01T00:39:01;5.25;;;3.50;;
49784;SDS011;35679;38.732;-121.358;2023-08-01T00:41:51;4.03;;;3.40;;
49784;SDS011;35679;38.732;-121.358;2023-08-01T00:44:40;5.07;;;3.63;;
49784;SDS011;35679;38.732;-121.358;2023-08-01T00:47:30;5.07;;;3.63;;
49784;SDS011;35679;38.732;-121.358;2023-08-01T00:50:19;3.53;;;3.22;;
49784;SDS011;35679;38.732;-121.358;2023-08-01T00:53:10;3.45;;;3.17;;
49784;SDS011;35679;38.732;-121.358;2023-08-01T00:56:01;3.90;;;3.60;;
49784;SDS011;35679;38.732;-121.358;2023-08-01T00:58:51;4.55;;;3.47;;
49784;SDS011;35679;38.732;-121.358;2023-08-01T01:01:40;3.40;;;3.13;;
49784;SDS011;35679;38.732;-121.358;2023-08-01T01:04:30;4.00;;;3.35;;
49784;SDS011;35679;38.732;-121.358;2023-08-01T01:07:19;3.60;;;3.30;;
49784;SDS011;35679;38.732;-121.358;2023-08-01T01:10:12;3.70;;;3.40;;
49784;SDS011;35679;38.732;-121.358;2023-08-01T01:13:01;3.50;;;3.30;;
49784;SDS011;35679;38.732;-121.358;2023-08-01T01:15:51;3.88;;;3.58;;
49784;SDS011;35679;38.732;-121.358;2023-08-01T01:18:41;3.60;;;3.30;;
49784;SDS011;35679;38.732;-121.358;2023-08-01T01:21:30;3.92;;;3.10;;
49784;SDS011;35679;38.732;-121.358;2023-08-01T01:24:34;3.40;;;3.10;;
49784;SDS011;35679;38.732;-121.358;2023-08-01T01:27:24;3.53;;;3.22;;
49784;SDS011;35679;38.732;-121.358;2023-08-01T01:30:15;3.65;;;3.15;;
49784;SDS011;35679;38.732;-121.358;2023-08-01T01:33:05;3.30;;;3.03;;
49784;SDS011;35679;38.732;-121.358;2023-08-01T01:35:56;4.80;;;3.27;;
49784;SDS011;35679;38.732;-121.358;2023-08-01T01:38:45;4.10;;;3.70;;
49784;SDS011;35679;38.732;-121.358;2023-08-01T01:41:35;6.43;;;5.93;;
49784;SDS011;35679;38.732;-121.358;2023-08-01T01:44:24;6.57;;;6.07;;
49784;SDS011;35679;38.732;-121.358;2023-08-01T01:47:14;6.43;;;5.93;;
49784;SDS011;35679;38.732;-121.358;2023-08-01T01:50:03;7.07;;;6.57;;
49784;SDS011;35679;38.732;-121.358;2023-08-01T01:52:54;4.68;;;4.38;;
49784;SDS011;35679;38.732;-121.358;2023-08-01T01:55:43;5.32;;;4.93;;
49784;SDS011;35679;38.732;-121.358;2023-08-01T01:58:33;6.68;;;5.75;;
49784;SDS011;35679;38.732;-121.358;2023-08-01T02:01:23;5.80;;;5.40;;
49784;SDS011;35679;38.732;-121.358;2023-08-01T02:04:12;6.85;;;5.40;;
49784;SDS011;35679;38.732;-121.358;2023-08-01T02:07:02;5.63;;;5.25;;
49784;SDS011;35679;38.732;-121.358;2023-08-01T02:09:51;6.22;;;5.82;;
49784;SDS011;35679;38.732;-121.358;2023-08-01T02:12:41;4.90;;;4.60;;
49784;SDS011;35679;38.732;-121.358;2023-08-01T02:15:30;5.15;;;4.63;;
49784;SDS011;35679;38.732;-121.358;2023-08-01T02:18:20;4.47;;;3.70;;
49784;SDS011;35679;38.732;-121.358;2023-08-01T02:21:09;4.10;;;3.80;;
49784;SDS011;35679;38.732;-121.358;2023-08-01T02:23:59;4.43;;;4.13;;
49784;SDS011;35679;38.732;-121.358;2023-08-01T02:26:49;3.80;;;3.50;;
49784;SDS011;35679;38.732;-121.358;2023-08-01T02:29:40;4.13;;;3.70;;
49784;SDS011;35679;38.732;-121.358;2023-08-01T02:32:30;4.38;;;4.07;;
49784;SDS011;35679;38.732;-121.358;2023-08-01T02:35:20;4.20;;;3.90;;
49784;SDS011;35679;38.732;-121.358;2023-08-01T02:38:10;5.20;;;3.40;;
49784;SDS011;35679;38.732;-121.358;2023-08-01T02:41:00;4.60;;;4.20;;
49784;SDS011;35679;38.732;-121.358;2023-08-01T02:43:49;3.53;;;3.08;;
49784;SDS011;35679;38.732;-121.358;2023-08-01T02:46:39;3.45;;;3.25;;
49784;SDS011;35679;38.732;-121.358;2023-08-01T02:49:29;4.30;;;3.90;;
49784;SDS011;35679;38.732;-121.358;2023-08-01T02:52:19;4.07;;;3.70;;
49784;SDS011;35679;38.732;-121.358;2023-08-01T02:55:08;4.10;;;3.80;;
49784;SDS011;35679;38.732;-121.358;2023-08-01T02:57:58;3.90;;;3.60;;
49784;SDS011;35679;38.732;-121.358;2023-08-01T03:00:47;3.97;;;3.67;;
49784;SDS011;35679;38.732;-121.358;2023-08-01T03:03:37;3.80;;;3.50;;
49784;SDS011;35679;38.732;-121.358;2023-08-01T03:06:26;3.95;;;3.63;;
49784;SDS011;35679;38.732;-121.358;2023-08-01T03:09:16;4.28;;;3.92;;
49784;SDS011;35679;38.732;-121.358;2023-08-01T03:12:05;4.20;;;3.90;;
49784;SDS011;35679;38.732;-121.358;2023-08-01T03:14:55;3.83;;;3.53;;
49784;SDS011;35679;38.732;-121.358;2023-08-01T03:17:44;5.20;;;3.10;;
49784;SDS011;35679;38.732;-121.358;2023-08-01T03:20:34;3.95;;;2.90;;
49784;SDS011;35679;38.732;-121.358;2023-08-01T03:23:23;3.70;;;3.10;;
49784;SDS011;35679;38.732;-121.358;2023-08-01T03:26:13;3.80;;;3.42;;
49784;SDS011;35679;38.732;-121.358;2023-08-01T03:29:03;3.42;;;3.13;;
49784;SDS011;35679;38.732;-121.358;2023-08-01T03:31:53;4.80;;;3.75;;
49784;SDS011;35679;38.732;-121.358;2023-08-01T03:34:43;5.05;;;3.25;;
49784;SDS011;35679;38.732;-121.358;2023-08-01T03:37:32;6.45;;;3.47;;
49784;SDS011;35679;38.732;-121.358;2023-08-01T03:40:22;3.75;;;3.30;;
49784;SDS011;35679;38.732;-121.358;2023-08-01T03:43:12;3.40;;;3.00;;
49784;SDS011;35679;38.732;-121.358;2023-08-01T03:46:01;4.07;;;3.25;;
49784;SDS011;35679;38.732;-121.358;2023-08-01T03:48:51;3.78;;;3.33;;
49784;SDS011;35679;38.732;-121.358;2023-08-01T03:51:41;3.53;;;3.20;;
49784;SDS011;35679;38.732;-121.358;2023-08-01T03:54:31;3.95;;;3.15;;
49784;SDS011;35679;38.732;-121.358;2023-08-01T03:57:21;5.70;;;3.72;;
49784;SDS011;35679;38.732;-121.358;2023-08-01T04:00:11;3.95;;;3.55;;
49784;SDS011;35679;38.732;-121.358;2023-08-01T04:03:06;3.70;;;3.40;;
49784;SDS011;35679;38.732;-121.358;2023-08-01T04:05:56;4.32;;;3.33;;
49784;SDS011;35679;38.732;-121.358;2023-08-01T04:08:46;4.05;;;3.42;;
49784;SDS011;35679;38.732;-121.358;2023-08-01T04:11:35;5.50;;;3.92;;
49784;SDS011;35679;38.732;-121.358;2023-08-01T04:14:24;4.13;;;3.72;;
49784;SDS011;35679;38.732;-121.358;2023-08-01T04:17:14;3.80;;;3.50;;
49784;SDS011;35679;38.732;-121.358;2023-08-01T04:20:03;4.00;;;3.40;;
49784;SDS011;35679;38.732;-121.358;2023-08-01T04:22:53;4.50;;;3.40;;
49784;SDS011;35679;38.732;-121.358;2023-08-01T04:25:43;4.13;;;3.50;;
49784;SDS011;35679;38.732;-121.358;2023-08-01T04:28:32;3.92;;;3.53;;
49784;SDS011;35679;38.732;-121.358;2023-08-01T04:31:23;4.60;;;3.53;;
49784;SDS011;35679;38.732;-121.358;2023-08-01T04:34:12;5.00;;;3.90;;
49784;SDS011;35679;38.732;-121.358;2023-08-01T04:37:02;7.00;;;3.83;;
49784;SDS011;35679;38.732;-121.358;2023-08-01T04:39:51;4.63;;;3.92;;
49784;SDS011;35679;38.732;-121.358;2023-08-01T04:42:41;5.75;;;3.55;;
49784;SDS011;35679;38.732;-121.358;2023-08-01T04:45:30;4.32;;;3.42;;
49784;SDS011;35679;38.732;-121.358;2023-08-01T04:48:20;4.15;;;3.70;;
49784;SDS011;35679;38.732;-121.358;2023-08-01T04:51:09;5.45;;;3.53;;
49784;SDS011;35679;38.732;-121.358;2023-08-01T04:53:59;4.68;;;3.40;;
49784;SDS011;35679;38.732;-121.358;2023-08-01T04:56:49;4.85;;;3.53;;
49784;SDS011;35679;38.732;-121.358;2023-08-01T04:59:38;4.85;;;3.50;;
49784;SDS011;35679;38.732;-121.358;2023-08-01T05:02:27;4.35;;;3.70;;
49784;SDS011;35679;38.732;-121.358;2023-08-01T05:05:17;6.97;;;3.60;;
49784;SDS011;35679;38.732;-121.358;2023-08-01T05:08:07;5.28;;;3.50;;
49784;SDS011;35679;38.732;-121.358;2023-08-01T05:10:56;4.50;;;3.75;;
49784;SDS011;35679;38.732;-121.358;2023-08-01T05:13:46;5.57;;;4.00;;
49784;SDS011;35679;38.732;-121.358;2023-08-01T05:16:35;4.03;;;3.58;;
49784;SDS011;35679;38.732;-121.358;2023-08-01T05:19:25;5.55;;;3.80;;
49784;SDS011;35679;38.732;-121.358;2023-08-01T05:22:15;6.65;;;5.03;;
49784;SDS011;35679;38.732;-121.358;2023-08-01T05:25:04;6.32;;;4.00;;
49784;SDS011;35679;38.732;-121.358;2023-08-01T05:27:54;6.13;;;4.68;;
49784;SDS011;35679;38.732;-121.358;2023-08-01T05:30:44;4.65;;;4.03;;
49784;SDS011;35679;38.732;-121.358;2023-08-01T05:33:34;4.85;;;4.10;;
49784;SDS011;35679;38.732;-121.358;2023-08-01T05:36:23;6.95;;;4.80;;
49784;SDS011;35679;38.732;-121.358;2023-08-01T05:39:13;8.05;;;5.32;;
49784;SDS011;35679;38.732;-121.358;2023-08-01T05:42:03;6.72;;;5.38;;
49784;SDS011;35679;38.732;-121.358;2023-08-01T05:44:56;5.38;;;4.93;;
49784;SDS011;35679;38.732;-121.358;2023-08-01T05:47:46;6.95;;;5.45;;
49784;SDS011;35679;38.732;-121.358;2023-08-01T05:50:36;7.43;;;5.20;;
49784;SDS011;35679;38.732;-121.358;2023-08-01T05:53:25;5.35;;;4.72;;
49784;SDS011;35679;38.732;-121.358;2023-08-01T05:56:15;5.05;;;4.65;;
49784;SDS011;35679;38.732;-121.358;2023-08-01T05:59:05;6.68;;;6.15;;
49784;SDS011;35679;38.732;-121.358;2023-08-01T06:01:54;7.55;;;6.95;;
49784;SDS011;35679;38.732;-121.358;2023-08-01T06:04:43;8.25;;;7.55;;
49784;SDS011;35679;38.732;-121.358;2023-08-01T06:07:33;8.57;;;7.78;;
49784;SDS011;35679;38.732;-121.358;2023-08-01T06:10:22;7.05;;;6.03;;
49784;SDS011;35679;38.732;-121.358;2023-08-01T06:13:12;6.18;;;5.40;;
49784;SDS011;35679;38.732;-121.358;2023-08-01T06:16:01;6.28;;;5.63;;
49784;SDS011;35679;38.732;-121.358;2023-08-01T06:18:50;6.50;;;5.22;;
49784;SDS011;35679;38.732;-121.358;2023-08-01T06:21:40;6.10;;;5.50;;
49784;SDS011;35679;38.732;-121.358;2023-08-01T06:24:30;6.60;;;5.57;;
49784;SDS011;35679;38.732;-121.358;2023-08-01T06:27:19;7.88;;;5.60;;
49784;SDS011;35679;38.732;-121.358;2023-08-01T06:30:09;7.60;;;6.90;;
49784;SDS011;35679;38.732;-121.358;2023-08-01T06:32:59;6.20;;;5.50;;
49784;SDS011;35679;38.732;-121.358;2023-08-01T06:35:49;5.90;;;5.47;;
49784;SDS011;35679;38.732;-121.358;2023-08-01T06:38:38;6.35;;;5.75;;
49784;SDS011;35679;38.732;-121.358;2023-08-01T06:41:28;9.65;;;8.05;;
49784;SDS011;35679;38.732;-121.358;2023-08-01T06:44:17;9.25;;;8.50;;
49784;SDS011;35679;38.732;-121.358;2023-08-01T06:47:06;9.50;;;8.48;;
49784;SDS011;35679;38.732;-121.358;2023-08-01T06:49:56;8.43;;;7.78;;
49784;SDS011;35679;38.732;-121.358;2023-08-01T06:52:45;10.48;;;9.32;;
49784;SDS011;35679;38.732;-121.358;2023-08-01T06:55:35;10.43;;;9.38;;
49784;SDS011;35679;38.732;-121.358;2023-08-01T06:58:24;8.18;;;7.35;;
49784;SDS011;35679;38.732;-121.358;2023-08-01T07:01:14;8.80;;;7.90;;
49784;SDS011;35679;38.732;-121.358;2023-08-01T07:04:03;7.43;;;6.93;;
49784;SDS011;35679;38.732;-121.358;2023-08-01T07:06:52;8.45;;;7.75;;
49784;SDS011;35679;38.732;-121.358;2023-08-01T07:09:42;9.27;;;8.48;;
49784;SDS011;35679;38.732;-121.358;2023-08-01T07:12:31;9.27;;;8.48;;
49784;SDS011;35679;38.732;-121.358;2023-08-01T07:15:21;9.73;;;8.82;;
49784;SDS011;35679;38.732;-121.358;2023-08-01T07:18:10;9.35;;;8.38;;
49784;SDS011;35679;38.732;-121.358;2023-08-01T07:21:00;7.70;;;4.75;;
49784;SDS011;35679;38.732;-121.358;2023-08-01T07:23:53;6.70;;;5.00;;
49784;SDS011;35679;38.732;-121.358;2023-08-01T07:26:43;9.85;;;7.38;;
49784;SDS011;35679;38.732;-121.358;2023-08-01T07:29:32;8.60;;;5.13;;
49784;SDS011;35679;38.732;-121.358;2023-08-01T07:32:21;7.55;;;4.30;;
49784;SDS011;35679;38.732;-121.358;2023-08-01T07:35:14;9.55;;;4.40;;
49784;SDS011;35679;38.732;-121.358;2023-08-01T07:38:04;7.28;;;4.57;;
49784;SDS011;35679;38.732;-121.358;2023-08-01T07:40:54;9.35;;;4.80;;
49784;SDS011;35679;38.732;-121.358;2023-08-01T07:43:44;9.80;;;5.07;;
49784;SDS011;35679;38.732;-121.358;2023-08-01T07:46:34;7.10;;;4.60;;
49784;SDS011;35679;38.732;-121.358;2023-08-01T07:49:23;7.70;;;5.18;;
49784;SDS011;35679;38.732;-121.358;2023-08-01T07:52:13;8.15;;;5.30;;
49784;SDS011;35679;38.732;-121.358;2023-08-01T07:55:02;8.35;;;4.97;;
49784;SDS011;35679;38.732;-121.358;2023-08-01T07:57:52;7.43;;;5.18;;
49784;SDS011;35679;38.732;-121.358;2023-08-01T08:00:41;8.52;;;5.32;;
49784;SDS011;35679;38.732;-121.358;2023-08-01T08:03:31;7.07;;;5.00;;
49784;SDS011;35679;38.732;-121.358;2023-08-01T08:06:21;7.70;;;5.32;;
49784;SDS011;35679;38.732;-121.358;2023-08-01T08:09:16;8.48;;;5.57;;
49784;SDS011;35679;38.732;-121.358;2023-08-01T08:12:05;7.45;;;5.50;;
49784;SDS011;35679;38.732;-121.358;2023-08-01T08:14:55;8.20;;;5.32;;
49784;SDS011;35679;38.732;-121.358;2023-08-01T08:17:44;8.68;;;5.70;;
49784;SDS011;35679;38.732;-121.358;2023-08-01T08:20:40;8.60;;;6.20;;
49784;SDS011;35679;38.732;-121.358;2023-08-01T08:23:34;7.50;;;5.72;;
49784;SDS011;35679;38.732;-121.358;2023-08-01T08:26:23;8.43;;;5.97;;
49784;SDS011;35679;38.732;-121.358;2023-08-01T08:29:12;8.38;;;5.47;;
49784;SDS011;35679;38.732;-121.358;2023-08-01T08:32:02;7.78;;;5.80;;
49784;SDS011;35679;38.732;-121.358;2023-08-01T08:34:51;9.15;;;5.63;;
49784;SDS011;35679;38.732;-121.358;2023-08-01T08:37:41;8.38;;;5.38;;
49784;SDS011;35679;38.732;-121.358;2023-08-01T08:40:33;8.98;;;5.82;;
49784;SDS011;35679;38.732;-121.358;2023-08-01T08:43:23;8.95;;;5.88;;
49784;SDS011;35679;38.732;-121.358;2023-08-01T08:46:15;9.65;;;6.45;;
49784;SDS011;35679;38.732;-121.358;2023-08-01T08:49:05;9.20;;;6.00;;
49784;SDS011;35679;38.732;-121.358;2023-08-01T08:51:56;9.10;;;6.35;;
49784;SDS011;35679;38.732;-121.358;2023-08-01T08:54:46;7.78;;;6.25;;
49784;SDS011;35679;38.732;-121.358;2023-08-01T08:57:36;9.65;;;6.53;;
49784;SDS011;35679;38.732;-121.358;2023-08-01T09:00:28;10.05;;;6.82;;
49784;SDS011;35679;38.732;-121.358;2023-08-01T09:03:18;9.50;;;7.00;;
49784;SDS011;35679;38.732;-121.358;2023-08-01T09:06:09;8.25;;;6.38;;
49784;SDS011;35679;38.732;-121.358;2023-08-01T09:09:11;11.20;;;6.97;;
49784;SDS011;35679;38.732;-121.358;2023-08-01T09:12:02;8.35;;;6.82;;
49784;SDS011;35679;38.732;-121.358;2023-08-01T09:14:53;9.13;;;6.57;;
49784;SDS011;35679;38.732;-121.358;2023-08-01T09:17:48;10.25;;;6.90;;
49784;SDS011;35679;38.732;-121.358;2023-08-01T09:20:48;9.73;;;7.10;;
49784;SDS011;35679;38.732;-121.358;2023-08-01T09:23:38;8.82;;;6.68;;
49784;SDS011;35679;38.732;-121.358;2023-08-01T09:26:28;10.50;;;6.93;;
49784;SDS011;35679;38.732;-121.358;2023-08-01T09:29:20;11.60;;;6.72;;
49784;SDS011;35679;38.732;-121.358;2023-08-01T09:32:13;10.32;;;7.25;;
49784;SDS011;35679;38.732;-121.358;2023-08-01T09:35:03;9.43;;;6.85;;
49784;SDS011;35679;38.732;-121.358;2023-08-01T09:37:53;10.63;;;7.25;;
49784;SDS011;35679;38.732;-121.358;2023-08-01T09:40:43;10.48;;;7.32;;
49784;SDS011;35679;38.732;-121.358;2023-08-01T09:43:34;10.05;;;7.00;;
49784;SDS011;35679;38.732;-121.358;2023-08-01T09:46:25;9.20;;;6.97;;
49784;SDS011;35679;38.732;-121.358;2023-08-01T09:49:14;9.50;;;7.10;;
49784;SDS011;35679;38.732;-121.358;2023-08-01T09:52:04;10.77;;;7.25;;
49784;SDS011;35679;38.732;-121.358;2023-08-01T09:54:54;9.77;;;6.80;;
49784;SDS011;35679;38.732;-121.358;2023-08-01T09:57:43;11.80;;;7.40;;
49784;SDS011;35679;38.732;-121.358;2023-08-01T10:00:36;12.15;;;7.15;;
49784;SDS011;35679;38.732;-121.358;2023-08-01T10:03:27;10.40;;;7.53;;
49784;SDS011;35679;38.732;-121.358;2023-08-01T10:06:18;10.83;;;7.73;;
49784;SDS011;35679;38.732;-121.358;2023-08-01T10:09:10;10.32;;;7.22;;
49784;SDS011;35679;38.732;-121.358;2023-08-01T10:12:02;8.50;;;7.15;;
49784;SDS011;35679;38.732;-121.358;2023-08-01T10:14:57;10.32;;;7.28;;
49784;SDS011;35679;38.732;-121.358;2023-08-01T10:17:47;10.63;;;7.85;;
49784;SDS011;35679;38.732;-121.358;2023-08-01T10:20:38;10.45;;;7.45;;
49784;SDS011;35679;38.732;-121.358;2023-08-01T10:23:28;9.50;;;7.43;;
49784;SDS011;35679;38.732;-121.358;2023-08-01T10:26:18;11.15;;;7.40;;
49784;SDS011;35679;38.732;-121.358;2023-08-01T10:29:08;8.60;;;7.40;;
49784;SDS011;35679;38.732;-121.358;2023-08-01T10:31:57;10.60;;;7.28;;
49784;SDS011;35679;38.732;-121.358;2023-08-01T10:34:51;8.82;;;7.63;;
49784;SDS011;35679;38.732;-121.358;2023-08-01T10:40:40;10.00;;;7.45;;
49784;SDS011;35679;38.732;-121.358;2023-08-01T10:43:32;12.18;;;7.93;;
49784;SDS011;35679;38.732;-121.358;2023-08-01T10:46:21;10.30;;;7.45;;
49784;SDS011;35679;38.732;-121.358;2023-08-01T10:49:11;10.30;;;7.40;;
49784;SDS011;35679;38.732;-121.358;2023-08-01T10:52:00;11.00;;;7.57;;
49784;SDS011;35679;38.732;-121.358;2023-08-01T10:54:58;12.13;;;7.60;;
49784;SDS011;35679;38.732;-121.358;2023-08-01T10:57:51;9.75;;;7.95;;
49784;SDS011;35679;38.732;-121.358;2023-08-01T11:00:43;11.50;;;8.05;;
49784;SDS011;35679;38.732;-121.358;2023-08-01T11:03:36;9.30;;;7.90;;
49784;SDS011;35679;38.732;-121.358;2023-08-01T11:06:27;13.15;;;7.65;;
49784;SDS011;35679;38.732;-121.358;2023-08-01T11:09:20;9.95;;;8.02;;
49784;SDS011;35679;38.732;-121.358;2023-08-01T11:12:11;10.15;;;7.03;;
49784;SDS011;35679;38.732;-121.358;2023-08-01T11:15:00;11.80;;;7.38;;
49784;SDS011;35679;38.732;-121.358;2023-08-01T11:17:54;10.60;;;7.88;;
49784;SDS011;35679;38.732;-121.358;2023-08-01T11:20:44;11.38;;;7.47;;
49784;SDS011;35679;38.732;-121.358;2023-08-01T11:23:34;12.82;;;7.78;;
49784;SDS011;35679;38.732;-121.358;2023-08-01T11:26:24;9.60;;;7.63;;
49784;SDS011;35679;38.732;-121.358;2023-08-01T11:29:14;10.20;;;7.30;;
49784;SDS011;35679;38.732;-121.358;2023-08-01T11:32:04;9.18;;;7.13;;
49784;SDS011;35679;38.732;-121.358;2023-08-01T11:34:54;9.98;;;7.68;;
49784;SDS011;35679;38.732;-121.358;2023-08-01T11:37:45;9.57;;;7.35;;
49784;SDS011;35679;38.732;-121.358;2023-08-01T11:40:35;10.10;;;7.25;;
49784;SDS011;35679;38.732;-121.358;2023-08-01T11:43:25;8.70;;;6.95;;
49784;SDS011;35679;38.732;-121.358;2023-08-01T11:46:15;11.32;;;7.00;;
49784;SDS011;35679;38.732;-121.358;2023-08-01T11:49:08;10.30;;;6.32;;
49784;SDS011;35679;38.732;-121.358;2023-08-01T11:51:57;10.90;;;6.47;;
49784;SDS011;35679;38.732;-121.358;2023-08-01T11:54:47;11.85;;;6.32;;
49784;SDS011;35679;38.732;-121.358;2023-08-01T11:57:36;10.75;;;6.38;;
49784;SDS011;35679;38.732;-121.358;2023-08-01T12:00:26;12.02;;;6.55;;
49784;SDS011;35679;38.732;-121.358;2023-08-01T12:03:17;12.10;;;5.68;;
49784;SDS011;35679;38.732;-121.358;2023-08-01T12:06:07;11.55;;;6.50;;
49784;SDS011;35679;38.732;-121.358;2023-08-01T12:09:05;12.38;;;6.13;;
49784;SDS011;35679;38.732;-121.358;2023-08-01T12:12:01;13.68;;;5.85;;
49784;SDS011;35679;38.732;-121.358;2023-08-01T12:14:50;9.55;;;6.70;;
49784;SDS011;35679;38.732;-121.358;2023-08-01T12:17:41;8.40;;;5.22;;
49784;SDS011;35679;38.732;-121.358;2023-08-01T12:20:31;12.52;;;5.82;;
49784;SDS011;35679;38.732;-121.358;2023-08-01T12:23:20;8.77;;;5.05;;
49784;SDS011;35679;38.732;-121.358;2023-08-01T12:26:10;12.00;;;5.75;;
49784;SDS011;35679;38.732;-121.358;2023-08-01T12:28:59;11.95;;;6.07;;
49784;SDS011;35679;38.732;-121.358;2023-08-01T12:31:49;11.35;;;5.82;;
49784;SDS011;35679;38.732;-121.358;2023-08-01T12:34:38;13.32;;;5.85;;
49784;SDS011;35679;38.732;-121.358;2023-08-01T12:37:28;8.48;;;5.63;;
49784;SDS011;35679;38.732;-121.358;2023-08-01T12:40:17;11.13;;;5.45;;
49784;SDS011;35679;38.732;-121.358;2023-08-01T12:43:07;11.73;;;6.00;;
49784;SDS011;35679;38.732;-121.358;2023-08-01T12:45:57;10.45;;;5.28;;
49784;SDS011;35679;38.732;-121.358;2023-08-01T12:48:46;12.75;;;5.50;;
49784;SDS011;35679;38.732;-121.358;2023-08-01T12:51:36;9.35;;;5.82;;
49784;SDS011;35679;38.732;-121.358;2023-08-01T12:54:25;10.45;;;5.90;;
49784;SDS011;35679;38.732;-121.358;2023-08-01T12:57:15;12.57;;;5.93;;
49784;SDS011;35679;38.732;-121.358;2023-08-01T13:00:05;8.00;;;5.15;;
49784;SDS011;35679;38.732;-121.358;2023-08-01T13:02:54;10.43;;;5.30;;
49784;SDS011;35679;38.732;-121.358;2023-08-01T13:05:44;14.38;;;5.68;;
49784;SDS011;35679;38.732;-121.358;2023-08-01T13:08:34;12.80;;;5.93;;
49784;SDS011;35679;38.732;-121.358;2023-08-01T13:11:23;15.52;;;5.57;;
49784;SDS011;35679;38.732;-121.358;2023-08-01T13:14:13;11.98;;;5.90;;
49784;SDS011;35679;38.732;-121.358;2023-08-01T13:17:03;10.50;;;4.82;;
49784;SDS011;35679;38.732;-121.358;2023-08-01T13:19:52;8.75;;;5.07;;
49784;SDS011;35679;38.732;-121.358;2023-08-01T13:22:42;10.60;;;5.25;;
49784;SDS011;35679;38.732;-121.358;2023-08-01T13:25:34;7.97;;;4.97;;
49784;SDS011;35679;38.732;-121.358;2023-08-01T13:28:24;12.50;;;5.25;;
49784;SDS011;35679;38.732;-121.358;2023-08-01T13:31:13;9.32;;;5.65;;
49784;SDS011;35679;38.732;-121.358;2023-08-01T13:34:03;11.45;;;4.95;;
49784;SDS011;35679;38.732;-121.358;2023-08-01T13:36:53;9.75;;;4.90;;
49784;SDS011;35679;38.732;-121.358;2023-08-01T13:39:42;10.27;;;4.82;;
49784;SDS011;35679;38.732;-121.358;2023-08-01T13:42:34;10.25;;;5.00;;
49784;SDS011;35679;38.732;-121.358;2023-08-01T13:45:23;11.05;;;4.90;;
49784;SDS011;35679;38.732;-121.358;2023-08-01T13:48:13;7.30;;;4.68;;
49784;SDS011;35679;38.732;-121.358;2023-08-01T13:51:02;9.38;;;5.60;;
49784;SDS011;35679;38.732;-121.358;2023-08-01T13:53:51;11.10;;;4.82;;
49784;SDS011;35679;38.732;-121.358;2023-08-01T13:56:41;10.48;;;4.68;;
49784;SDS011;35679;38.732;-121.358;2023-08-01T13:59:30;11.18;;;4.68;;
49784;SDS011;35679;38.732;-121.358;2023-08-01T14:02:20;10.27;;;4.88;;
49784;SDS011;35679;38.732;-121.358;2023-08-01T14:05:09;11.82;;;5.45;;
49784;SDS011;35679;38.732;-121.358;2023-08-01T14:07:59;9.52;;;5.03;;
49784;SDS011;35679;38.732;-121.358;2023-08-01T14:10:50;8.50;;;4.65;;
49784;SDS011;35679;38.732;-121.358;2023-08-01T14:13:39;11.90;;;5.10;;
49784;SDS011;35679;38.732;-121.358;2023-08-01T14:16:29;11.02;;;5.63;;
49784;SDS011;35679;38.732;-121.358;2023-08-01T14:19:19;9.38;;;4.60;;
49784;SDS011;35679;38.732;-121.358;2023-08-01T14:22:09;8.40;;;4.78;;
49784;SDS011;35679;38.732;-121.358;2023-08-01T14:24:58;11.05;;;5.00;;
49784;SDS011;35679;38.732;-121.358;2023-08-01T14:27:47;11.45;;;4.75;;
49784;SDS011;35679;38.732;-121.358;2023-08-01T14:30:38;8.25;;;4.72;;
49784;SDS011;35679;38.732;-121.358;2023-08-01T14:33:27;14.25;;;4.70;;
49784;SDS011;35679;38.732;-121.358;2023-08-01T14:36:17;10.52;;;4.63;;
49784;SDS011;35679;38.732;-121.358;2023-08-01T14:39:09;10.85;;;4.72;;
49784;SDS011;35679;38.732;-121.358;2023-08-01T14:42:09;14.55;;;4.63;;
49784;SDS011;35679;38.732;-121.358;2023-08-01T14:44:59;7.38;;;4.30;;
49784;SDS011;35679;38.732;-121.358;2023-08-01T14:47:48;12.85;;;4.47;;
49784;SDS011;35679;38.732;-121.358;2023-08-01T14:50:38;10.52;;;4.63;;
49784;SDS011;35679;38.732;-121.358;2023-08-01T14:53:28;10.18;;;4.22;;
49784;SDS011;35679;38.732;-121.358;2023-08-01T14:56:17;10.98;;;4.82;;
49784;SDS011;35679;38.732;-121.358;2023-08-01T14:59:06;16.00;;;4.25;;
49784;SDS011;35679;38.732;-121.358;2023-08-01T15:01:56;8.77;;;4.28;;
49784;SDS011;35679;38.732;-121.358;2023-08-01T15:04:45;9.43;;;4.45;;
49784;SDS011;35679;38.732;-121.358;2023-08-01T15:07:35;9.27;;;4.65;;
49784;SDS011;35679;38.732;-121.358;2023-08-01T15:10:27;5.85;;;3.85;;
49784;SDS011;35679;38.732;-121.358;2023-08-01T15:13:16;11.68;;;4.80;;
49784;SDS011;35679;38.732;-121.358;2023-08-01T15:16:08;10.85;;;4.82;;
49784;SDS011;35679;38.732;-121.358;2023-08-01T15:18:59;9.57;;;4.18;;
49784;SDS011;35679;38.732;-121.358;2023-08-01T15:21:49;7.97;;;4.38;;
49784;SDS011;35679;38.732;-121.358;2023-08-01T15:24:38;7.68;;;4.40;;
49784;SDS011;35679;38.732;-121.358;2023-08-01T15:27:28;9.10;;;4.10;;
49784;SDS011;35679;38.732;-121.358;2023-08-01T15:30:18;10.32;;;4.60;;
49784;SDS011;35679;38.732;-121.358;2023-08-01T15:33:08;5.50;;;3.88;;
49784;SDS011;35679;38.732;-121.358;2023-08-01T15:36:02;6.28;;;4.05;;
49784;SDS011;35679;38.732;-121.358;2023-08-01T15:38:53;7.95;;;4.20;;
49784;SDS011;35679;38.732;-121.358;2023-08-01T15:41:44;6.28;;;3.65;;
49784;SDS011;35679;38.732;-121.358;2023-08-01T15:44:34;9.40;;;4.15;;
49784;SDS011;35679;38.732;-121.358;2023-08-01T15:47:24;7.65;;;4.43;;
49784;SDS011;35679;38.732;-121.358;2023-08-01T15:50:14;6.10;;;4.10;;
49784;SDS011;35679;38.732;-121.358;2023-08-01T15:53:03;7.32;;;4.22;;
49784;SDS011;35679;38.732;-121.358;2023-08-01T15:55:53;9.63;;;3.92;;
49784;SDS011;35679;38.732;-121.358;2023-08-01T15:58:44;9.57;;;4.72;;
49784;SDS011;35679;38.732;-121.358;2023-08-01T16:01:33;9.40;;;4.60;;
49784;SDS011;35679;38.732;-121.358;2023-08-01T16:04:23;8.90;;;4.10;;
49784;SDS011;35679;38.732;-121.358;2023-08-01T16:07:12;6.68;;;4.10;;
49784;SDS011;35679;38.732;-121.358;2023-08-01T16:10:02;10.35;;;4.18;;
49784;SDS011;35679;38.732;-121.358;2023-08-01T16:12:51;11.50;;;4.47;;
49784;SDS011;35679;38.732;-121.358;2023-08-01T16:15:41;12.40;;;4.45;;
49784;SDS011;35679;38.732;-121.358;2023-08-01T16:18:31;6.05;;;4.10;;
49784;SDS011;35679;38.732;-121.358;2023-08-01T16:21:20;6.18;;;4.07;;